createdAt,value
2023-01-10T00:01:18.853Z,69.40
2023-01-10T00:03:52.371Z,69.30
2023-01-10T00:06:25.973Z,69.30
2023-01-10T00:08:59.965Z,69.50
2023-01-10T00:11:50.713Z,69.30
2023-01-10T00:14:29.963Z,69.40
2023-01-10T00:17:04.160Z,69.40
2023-01-10T00:19:37.596Z,69.30
2023-01-10T00:22:23.077Z,69.30
2023-01-10T00:24:56.870Z,69.30
2023-01-10T00:27:30.767Z,69.30
2023-01-10T00:30:14.408Z,69.40
2023-01-10T00:32:47.713Z,69.40
2023-01-10T00:35:21.221Z,69.30
2023-01-10T00:38:00.576Z,69.30
2023-01-10T00:40:35.086Z,69.30
2023-01-10T00:43:23.962Z,69.40
2023-01-10T00:45:59.243Z,69.30
2023-01-10T00:48:33.062Z,69.30
2023-01-10T00:51:07.544Z,69.20
2023-01-10T00:53:40.878Z,69.20
2023-01-10T00:56:14.471Z,69.10
2023-01-10T00:58:48.034Z,69.10
2023-01-10T01:01:23.661Z,69.10
2023-01-10T01:03:59.729Z,69.20
2023-01-10T01:06:33.256Z,69.10
2023-01-10T01:09:07.093Z,69.10
2023-01-10T01:11:40.935Z,69.10
2023-01-10T01:14:14.781Z,69.10
2023-01-10T01:16:50.163Z,69.00
2023-01-10T01:19:23.637Z,69.00
2023-01-10T01:21:57.495Z,68.90
2023-01-10T01:24:31.699Z,69.00
2023-01-10T01:27:05.724Z,69.00
2023-01-10T01:29:43.432Z,69.00
2023-01-10T01:32:19.084Z,69.00
2023-01-10T01:34:52.993Z,69.00
2023-01-10T01:37:26.456Z,69.20
2023-01-10T01:39:59.923Z,69.10
2023-01-10T01:42:36.896Z,69.10
2023-01-10T01:45:40.173Z,69.20
2023-01-10T01:48:37.458Z,69.30
2023-01-10T01:51:17.599Z,69.30
2023-01-10T01:53:58.200Z,69.30
2023-01-10T01:56:39.112Z,69.20
2023-01-10T01:59:19.499Z,69.20
2023-01-10T02:01:58.915Z,69.20
2023-01-10T02:04:42.514Z,69.20
2023-01-10T02:07:17.175Z,69.20
2023-01-10T02:09:57.202Z,69.20
2023-01-10T02:12:34.592Z,69.20
2023-01-10T02:15:09.912Z,69.20
2023-01-10T02:17:44.224Z,69.10
2023-01-10T02:20:22.539Z,69.20
2023-01-10T02:23:28.089Z,69.20
2023-01-10T02:26:38.963Z,69.20
2023-01-10T02:30:14.918Z,69.20
2023-01-10T02:33:05.404Z,69.10
2023-01-10T02:36:08.689Z,69.00
2023-01-10T02:38:59.622Z,69.00
2023-01-10T02:41:43.495Z,69.00
2023-01-10T02:44:23.895Z,69.00
2023-01-10T02:46:58.613Z,69.00
2023-01-10T02:49:44.357Z,69.00
2023-01-10T02:52:23.986Z,68.80
2023-01-10T02:55:04.101Z,68.80
2023-01-10T02:57:53.197Z,68.70
2023-01-10T03:00:47.145Z,68.70
2023-01-10T03:03:35.232Z,68.70
2023-01-10T03:06:29.187Z,68.70
2023-01-10T03:09:13.839Z,68.70
2023-01-10T03:11:51.547Z,68.60
2023-01-10T03:14:29.562Z,68.60
2023-01-10T03:17:09.834Z,68.60
2023-01-10T03:19:51.160Z,68.60
2023-01-10T03:22:28.092Z,68.50
2023-01-10T03:25:07.411Z,68.50
2023-01-10T03:27:50.540Z,69.20
2023-01-10T03:30:34.698Z,68.50
2023-01-10T03:33:08.971Z,68.40
2023-01-10T03:35:58.885Z,68.50
2023-01-10T03:38:45.341Z,68.40
2023-01-10T03:41:35.176Z,68.30
2023-01-10T03:44:37.001Z,68.30
2023-01-10T03:47:15.872Z,68.20
2023-01-10T03:49:56.665Z,68.20
2023-01-10T03:52:31.479Z,68.20
2023-01-10T03:55:11.515Z,68.20
2023-01-10T03:57:46.265Z,68.00
2023-01-10T04:00:21.907Z,68.00
2023-01-10T04:02:55.722Z,68.00
2023-01-10T04:05:29.499Z,67.90
2023-01-10T04:08:03.439Z,67.80
2023-01-10T04:10:38.583Z,67.70
2023-01-10T04:13:12.438Z,67.70
2023-01-10T04:15:46.117Z,67.60
2023-01-10T04:18:19.772Z,67.60
2023-01-10T04:20:53.344Z,67.60
2023-01-10T04:23:26.752Z,67.60
2023-01-10T04:26:01.742Z,67.60
2023-01-10T04:28:35.214Z,67.60
2023-01-10T04:31:08.885Z,67.70
2023-01-10T04:33:42.729Z,67.80
2023-01-10T04:36:16.233Z,67.80
2023-01-10T04:38:49.788Z,67.80
2023-01-10T04:41:24.755Z,67.80
2023-01-10T04:43:58.726Z,67.70
2023-01-10T04:46:32.803Z,67.60
2023-01-10T04:49:06.349Z,67.70
2023-01-10T04:51:40.273Z,67.70
2023-01-10T04:54:13.734Z,67.70
2023-01-10T04:56:48.850Z,67.70
2023-01-10T04:59:22.647Z,67.70
2023-01-10T05:01:58.570Z,67.70
2023-01-10T05:04:32.526Z,67.80
2023-01-10T05:07:05.846Z,67.60
2023-01-10T05:09:39.314Z,67.60
2023-01-10T05:12:14.146Z,67.70
2023-01-10T05:14:47.703Z,67.70
2023-01-10T05:17:21.230Z,67.80
2023-01-10T05:19:54.792Z,67.80
2023-01-10T05:22:28.542Z,67.80
2023-01-10T05:25:02.413Z,67.80
2023-01-10T05:27:37.711Z,68.00
2023-01-10T05:30:14.259Z,68.00
2023-01-10T05:32:48.409Z,68.10
2023-01-10T05:35:22.252Z,68.10
2023-01-10T05:37:55.777Z,68.10
2023-01-10T05:40:29.478Z,68.10
2023-01-10T05:43:04.608Z,68.10
2023-01-10T05:45:38.097Z,68.10
2023-01-10T05:48:11.888Z,68.20
2023-01-10T05:50:45.968Z,68.00
2023-01-10T05:53:20.103Z,68.20
2023-01-10T05:55:58.824Z,68.00
2023-01-10T05:58:33.799Z,68.10
2023-01-10T06:01:07.255Z,67.90
2023-01-10T06:03:41.008Z,67.80
2023-01-10T06:06:14.856Z,67.80
2023-01-10T06:08:48.583Z,67.80
2023-01-10T06:11:22.033Z,67.80
2023-01-10T06:13:57.689Z,67.90
2023-01-10T06:16:31.524Z,67.80
2023-01-10T06:19:05.234Z,67.90
2023-01-10T06:21:38.642Z,67.80
2023-01-10T06:24:13.383Z,67.80
2023-01-10T06:26:46.984Z,67.80
2023-01-10T06:29:22.346Z,67.70
2023-01-10T06:31:56.299Z,67.70
2023-01-10T06:34:30.158Z,67.80
2023-01-10T06:37:03.781Z,67.70
2023-01-10T06:39:37.720Z,67.80
2023-01-10T06:42:11.513Z,67.90
2023-01-10T06:44:57.418Z,67.90
2023-01-10T06:47:31.217Z,68.00
2023-01-10T06:50:07.096Z,68.00
2023-01-10T06:52:40.683Z,68.10
2023-01-10T06:55:14.622Z,68.10
2023-01-10T06:57:48.368Z,68.20
2023-01-10T07:00:25.305Z,68.20
2023-01-10T07:03:01.494Z,68.40
2023-01-10T07:05:36.034Z,68.40
2023-01-10T07:08:09.999Z,68.30
2023-01-10T07:10:45.074Z,68.40
2023-01-10T07:13:18.800Z,68.50
2023-01-10T07:15:53.885Z,68.40
2023-01-10T07:18:27.704Z,68.40
2023-01-10T07:21:01.655Z,68.40
2023-01-10T07:23:35.597Z,68.40
2023-01-10T07:26:17.556Z,68.40
2023-01-10T07:28:52.771Z,68.40
2023-01-10T07:31:28.149Z,68.40
2023-01-10T07:34:01.941Z,68.50
2023-01-10T07:36:39.364Z,68.50
2023-01-10T07:39:13.307Z,68.50
2023-01-10T07:41:49.871Z,68.40
2023-01-10T07:44:24.425Z,68.40
2023-01-10T07:46:59.558Z,68.50
2023-01-10T07:49:32.964Z,68.50
2023-01-10T07:52:09.338Z,68.50
2023-01-10T07:54:43.050Z,68.50
2023-01-10T07:57:16.884Z,69.10
2023-01-10T07:59:50.405Z,68.40
2023-01-10T08:02:25.369Z,68.40
2023-01-10T08:04:59.253Z,68.40
2023-01-10T08:07:33.682Z,68.30
2023-01-10T08:10:09.115Z,68.40
2023-01-10T08:12:42.875Z,68.50
2023-01-10T08:15:16.251Z,68.50
2023-01-10T08:17:51.479Z,68.50
2023-01-10T08:20:25.350Z,68.50
2023-01-10T08:22:59.647Z,68.40
2023-01-10T08:25:33.473Z,68.50
2023-01-10T08:28:07.091Z,68.50
2023-01-10T08:30:41.606Z,69.20
2023-01-10T08:33:16.956Z,68.50
2023-01-10T08:35:51.033Z,68.60
2023-01-10T08:38:24.734Z,68.50
2023-01-10T08:40:59.189Z,68.40
2023-01-10T08:43:33.542Z,68.50
2023-01-10T08:46:07.674Z,68.40
2023-01-10T08:48:44.415Z,68.50
2023-01-10T08:51:18.102Z,68.50
2023-01-10T08:53:52.170Z,68.50
2023-01-10T08:56:25.822Z,68.30
2023-01-10T08:59:00.786Z,68.20
2023-01-10T09:01:34.675Z,68.10
2023-01-10T09:04:09.858Z,68.00
2023-01-10T09:06:43.751Z,68.00
2023-01-10T09:09:17.485Z,67.80
2023-01-10T09:11:51.319Z,67.90
2023-01-10T09:14:25.018Z,67.60
2023-01-10T09:16:58.886Z,67.70
2023-01-10T09:19:34.962Z,67.50
2023-01-10T09:22:08.908Z,67.70
2023-01-10T09:24:44.059Z,67.70
2023-01-10T09:27:17.927Z,67.70
2023-01-10T09:29:51.645Z,67.80
2023-01-10T09:32:25.615Z,67.90
2023-01-10T09:35:00.515Z,67.90
2023-01-10T09:37:34.619Z,67.90
2023-01-10T09:40:11.176Z,67.90
2023-01-10T09:43:02.624Z,68.00
2023-01-10T09:45:52.184Z,68.10
2023-01-10T09:48:38.660Z,68.20
2023-01-10T09:51:34.248Z,68.20
2023-01-10T09:54:16.194Z,68.10
2023-01-10T09:56:51.639Z,68.10
2023-01-10T09:59:31.463Z,68.10
2023-01-10T10:02:25.052Z,68.00
2023-01-10T10:05:13.959Z,68.00
2023-01-10T10:07:57.059Z,67.90
2023-01-10T10:10:41.470Z,67.90
2023-01-10T10:13:27.991Z,68.00
2023-01-10T10:16:16.061Z,67.90
2023-01-10T10:19:06.259Z,68.10
2023-01-10T10:21:53.679Z,67.90
2023-01-10T10:24:57.964Z,67.90
2023-01-10T10:27:41.353Z,67.80
2023-01-10T10:30:32.913Z,67.80
2023-01-10T10:33:29.114Z,67.80
2023-01-10T10:36:10.841Z,67.70
2023-01-10T10:38:49.024Z,67.70
2023-01-10T10:41:36.019Z,67.80
2023-01-10T10:44:32.790Z,67.80
2023-01-10T10:47:17.118Z,67.60
2023-01-10T10:49:59.724Z,67.50
2023-01-10T10:52:38.080Z,67.40
2023-01-10T10:55:17.082Z,67.50
2023-01-10T10:57:59.926Z,68.00
2023-01-10T11:00:35.632Z,67.10
2023-01-10T11:03:28.634Z,67.10
2023-01-10T11:06:03.115Z,67.00
2023-01-10T11:08:42.113Z,67.00
2023-01-10T11:11:25.393Z,66.90
2023-01-10T11:14:03.922Z,66.90
2023-01-10T11:16:40.314Z,66.80
2023-01-10T11:19:22.773Z,66.70
2023-01-10T11:22:01.930Z,66.60
2023-01-10T11:24:40.967Z,66.40
2023-01-10T11:27:20.682Z,66.30
2023-01-10T11:30:00.859Z,66.20
2023-01-10T11:32:40.515Z,66.10
2023-01-10T11:35:24.340Z,66.00
2023-01-10T11:38:04.773Z,66.00
2023-01-10T11:40:39.683Z,65.90
2023-01-10T11:43:34.517Z,66.00
2023-01-10T11:46:20.607Z,66.10
2023-01-10T11:49:06.672Z,66.70
2023-01-10T11:51:48.693Z,65.90
2023-01-10T11:54:25.938Z,65.70
2023-01-10T11:57:05.336Z,65.70
2023-01-10T11:59:39.491Z,65.50
2023-01-10T12:02:26.842Z,65.40
2023-01-10T12:05:06.053Z,65.50
2023-01-10T12:08:00.230Z,65.50
2023-01-10T12:10:36.154Z,65.40
2023-01-10T12:13:18.027Z,65.40
2023-01-10T12:15:52.882Z,65.80
2023-01-10T12:18:27.531Z,65.00
2023-01-10T12:21:01.785Z,65.00
2023-01-10T12:23:41.436Z,64.90
2023-01-10T12:26:15.580Z,65.00
2023-01-10T12:28:58.719Z,64.80
2023-01-10T12:31:35.747Z,64.70
2023-01-10T12:34:21.537Z,64.70
2023-01-10T12:37:07.236Z,64.70
2023-01-10T12:39:46.348Z,64.80
2023-01-10T12:43:03.376Z,64.70
2023-01-10T12:45:48.443Z,64.40
2023-01-10T12:48:36.466Z,64.50
2023-01-10T12:51:20.776Z,64.40
2023-01-10T12:54:01.868Z,64.30
2023-01-10T12:56:36.951Z,64.30
2023-01-10T12:59:36.347Z,64.20
2023-01-10T13:02:25.812Z,64.10
2023-01-10T13:05:05.633Z,64.00
2023-01-10T13:07:41.662Z,64.10
2023-01-10T13:10:22.061Z,63.90
2023-01-10T13:13:10.949Z,63.80
2023-01-10T13:15:54.892Z,63.90
2023-01-10T13:18:34.872Z,63.80
2023-01-10T13:21:13.959Z,63.80
2023-01-10T13:23:53.085Z,64.30
2023-01-10T13:26:27.155Z,63.40
2023-01-10T13:29:04.060Z,63.20
2023-01-10T13:31:38.039Z,63.00
2023-01-10T13:34:17.660Z,62.70
2023-01-10T13:36:58.165Z,62.50
2023-01-10T13:39:37.861Z,62.40
2023-01-10T13:42:45.162Z,62.30
2023-01-10T13:45:28.352Z,62.30
2023-01-10T13:48:26.214Z,62.20
2023-01-10T13:51:15.971Z,62.00
2023-01-10T13:54:01.386Z,61.80
2023-01-10T13:56:40.885Z,61.60
2023-01-10T13:59:54.779Z,61.30
2023-01-10T14:02:32.146Z,61.40
2023-01-10T14:05:17.972Z,61.50
2023-01-10T14:07:55.325Z,61.30
2023-01-10T14:10:32.788Z,61.30
2023-01-10T14:13:20.687Z,61.20
2023-01-10T14:15:54.696Z,60.90
2023-01-10T14:18:35.838Z,60.80
2023-01-10T14:21:21.020Z,60.70
2023-01-10T14:23:57.963Z,60.70
2023-01-10T14:26:36.966Z,60.80
2023-01-10T14:29:19.339Z,60.80
2023-01-10T14:31:55.595Z,60.70
2023-01-10T14:34:32.459Z,60.50
2023-01-10T14:37:17.278Z,60.60
2023-01-10T14:39:55.999Z,60.40
2023-01-10T14:42:31.085Z,60.30
2023-01-10T14:45:21.520Z,60.20
2023-01-10T14:47:55.605Z,60.10
2023-01-10T14:50:32.778Z,60.00
2023-01-10T14:53:07.574Z,60.10
2023-01-10T14:55:44.541Z,60.20
2023-01-10T14:58:20.050Z,60.10
2023-01-10T15:00:57.406Z,60.00
2023-01-10T15:03:31.423Z,60.10
2023-01-10T15:06:05.300Z,60.10
2023-01-10T15:08:39.123Z,60.00
2023-01-10T15:11:15.988Z,60.00
2023-01-10T15:13:55.322Z,60.00
2023-01-10T15:16:31.695Z,60.20
2023-01-10T15:19:06.176Z,60.00
2023-01-10T15:21:45.201Z,60.00
2023-01-10T15:24:33.029Z,59.70
2023-01-10T15:27:14.400Z,59.70
2023-01-10T15:29:47.991Z,60.00
2023-01-10T15:32:29.896Z,59.70
2023-01-10T15:35:04.617Z,59.80
2023-01-10T15:37:45.410Z,59.70
2023-01-10T15:40:27.077Z,59.70
2023-01-10T15:43:25.718Z,59.60
2023-01-10T15:46:01.735Z,59.40
2023-01-10T15:48:41.128Z,59.60
2023-01-10T15:51:17.267Z,59.60
2023-01-10T15:54:03.413Z,60.20
2023-01-10T15:56:42.143Z,59.50
2023-01-10T15:59:27.673Z,59.50
2023-01-10T16:02:17.499Z,59.50
2023-01-10T16:04:56.746Z,59.50
2023-01-10T16:07:35.203Z,59.60
2023-01-10T16:10:20.552Z,59.40
2023-01-10T16:13:14.019Z,59.40
2023-01-10T16:15:47.498Z,59.60
2023-01-10T16:18:21.079Z,60.20
2023-01-10T16:21:00.784Z,59.50
2023-01-10T16:23:37.690Z,60.10
2023-01-10T16:26:11.742Z,59.70
2023-01-10T16:28:45.647Z,59.70
2023-01-10T16:31:19.263Z,59.80
2023-01-10T16:33:53.220Z,59.80
2023-01-10T16:36:28.236Z,59.90
2023-01-10T16:39:13.566Z,60.10
2023-01-10T16:42:06.392Z,60.20
2023-01-10T16:44:41.625Z,60.30
2023-01-10T16:47:15.405Z,61.30
2023-01-10T16:49:49.148Z,60.90
2023-01-10T16:52:24.148Z,61.00
2023-01-10T16:54:57.692Z,61.20
2023-01-10T16:57:31.467Z,61.40
2023-01-10T17:00:06.882Z,61.50
2023-01-10T17:02:41.333Z,61.80
2023-01-10T17:05:16.647Z,62.00
2023-01-10T17:07:52.275Z,62.30
2023-01-10T17:10:26.027Z,62.40
2023-01-10T17:13:00.344Z,62.50
2023-01-10T17:15:34.977Z,62.80
2023-01-10T17:18:08.748Z,62.90
2023-01-10T17:20:42.271Z,63.10
2023-01-10T17:23:17.577Z,63.40
2023-01-10T17:25:51.592Z,63.50
2023-01-10T17:28:25.118Z,63.90
2023-01-10T17:30:59.076Z,63.90
2023-01-10T17:33:34.164Z,64.20
2023-01-10T17:36:09.275Z,64.40
2023-01-10T17:38:44.392Z,64.60
2023-01-10T17:41:18.052Z,64.60
2023-01-10T17:43:51.680Z,64.90
2023-01-10T17:46:25.273Z,65.00
2023-01-10T17:48:58.816Z,65.20
2023-01-10T17:51:32.583Z,65.40
2023-01-10T17:54:08.189Z,65.60
2023-01-10T17:56:41.992Z,65.60
2023-01-10T17:59:15.849Z,65.80
2023-01-10T18:01:49.772Z,65.90
2023-01-10T18:04:23.874Z,66.60
2023-01-10T18:06:57.873Z,66.10
2023-01-10T18:09:33.241Z,66.20
2023-01-10T18:12:08.223Z,66.40
2023-01-10T18:14:41.851Z,66.50
2023-01-10T18:17:17.413Z,66.40
2023-01-10T18:19:51.415Z,66.50
2023-01-10T18:22:48.154Z,66.70
2023-01-10T18:25:24.519Z,66.70
2023-01-10T18:28:00.463Z,66.70
2023-01-10T18:30:34.354Z,66.80
2023-01-10T18:33:08.205Z,67.60
2023-01-10T18:35:42.229Z,67.00
2023-01-10T18:38:16.257Z,67.30
2023-01-10T18:40:53.495Z,67.30
2023-01-10T18:43:27.364Z,67.30
2023-01-10T18:46:03.935Z,67.40
2023-01-10T18:48:37.923Z,67.50
2023-01-10T18:51:14.956Z,67.70
2023-01-10T18:53:48.986Z,67.70
2023-01-10T18:56:23.837Z,67.70
2023-01-10T18:58:59.171Z,67.90
2023-01-10T19:01:34.688Z,67.90
2023-01-10T19:04:08.640Z,67.90
2023-01-10T19:06:44.725Z,68.10
2023-01-10T19:09:19.737Z,68.10
2023-01-10T19:11:54.945Z,68.30
2023-01-10T19:14:28.607Z,68.30
2023-01-10T19:17:02.065Z,68.40
2023-01-10T19:19:36.025Z,68.50
2023-01-10T19:22:09.835Z,68.40
2023-01-10T19:24:43.656Z,68.50
2023-01-10T19:27:19.516Z,68.50
2023-01-10T19:29:53.215Z,68.70
2023-01-10T19:32:27.905Z,68.90
2023-01-10T19:35:01.586Z,68.80
2023-01-10T19:37:35.662Z,68.70
2023-01-10T19:40:12.625Z,68.80
2023-01-10T19:42:47.661Z,69.10
2023-01-10T19:45:21.511Z,68.70
2023-01-10T19:47:55.484Z,68.80
2023-01-10T19:50:29.455Z,68.80
2023-01-10T19:53:03.078Z,68.80
2023-01-10T19:55:37.275Z,68.90
2023-01-10T19:58:13.188Z,68.80
2023-01-10T20:00:46.647Z,69.00
2023-01-10T20:03:20.458Z,68.70
2023-01-10T20:05:53.848Z,68.80
2023-01-10T20:08:27.254Z,68.80
2023-01-10T20:11:06.002Z,68.80
2023-01-10T20:13:45.028Z,69.00
2023-01-10T20:16:21.084Z,68.70
2023-01-10T20:18:54.717Z,68.80
2023-01-10T20:21:28.467Z,68.70
2023-01-10T20:24:02.455Z,68.70
2023-01-10T20:26:36.119Z,68.70
2023-01-10T20:29:12.499Z,68.70
2023-01-10T20:31:48.106Z,68.70
2023-01-10T20:34:23.199Z,68.80
2023-01-10T20:36:56.862Z,69.60
2023-01-10T20:39:30.903Z,68.90
2023-01-10T20:42:04.726Z,69.00
2023-01-10T20:44:40.253Z,69.00
2023-01-10T20:47:14.174Z,68.90
2023-01-10T20:49:48.291Z,69.10
2023-01-10T20:52:21.842Z,69.10
2023-01-10T20:54:55.734Z,69.10
2023-01-10T20:57:29.118Z,69.20
2023-01-10T21:00:04.266Z,69.30
2023-01-10T21:02:37.970Z,69.20
2023-01-10T21:05:11.709Z,69.30
2023-01-10T21:07:45.329Z,69.40
2023-01-10T21:10:19.837Z,69.40
2023-01-10T21:12:53.661Z,69.40
2023-01-10T21:15:29.089Z,69.70
2023-01-10T21:18:02.844Z,69.60
2023-01-10T21:20:36.651Z,69.60
2023-01-10T21:23:11.359Z,69.70
2023-01-10T21:25:46.004Z,69.70
2023-01-10T21:28:20.842Z,69.70
2023-01-10T21:30:56.031Z,69.60
2023-01-10T21:33:29.463Z,69.50
2023-01-10T21:36:03.269Z,69.50
2023-01-10T21:38:37.909Z,69.40
2023-01-10T21:41:15.447Z,69.50
2023-01-10T21:43:49.308Z,69.50
2023-01-10T21:46:24.316Z,69.40
2023-01-10T21:48:58.758Z,69.40
2023-01-10T21:51:32.470Z,69.40
2023-01-10T21:54:06.298Z,69.30
2023-01-10T21:56:39.769Z,69.30
2023-01-10T21:59:13.555Z,69.30
2023-01-10T22:01:49.818Z,69.30
2023-01-10T22:04:24.452Z,69.40
2023-01-10T22:06:58.697Z,69.20
2023-01-10T22:09:32.228Z,69.40
2023-01-10T22:12:06.460Z,69.20
2023-01-10T22:14:40.440Z,69.30
2023-01-10T22:17:16.558Z,69.30
2023-01-10T22:19:50.580Z,69.40
2023-01-10T22:22:24.297Z,69.40
2023-01-10T22:24:57.886Z,69.40
2023-01-10T22:27:31.969Z,70.20
2023-01-10T22:30:07.361Z,69.60
2023-01-10T22:32:42.492Z,69.70
2023-01-10T22:35:17.144Z,69.80
2023-01-10T22:37:50.947Z,69.90
2023-01-10T22:40:25.210Z,69.90
2023-01-10T22:42:58.982Z,69.90
2023-01-10T22:45:33.426Z,69.90
2023-01-10T22:48:08.964Z,69.90
2023-01-10T22:50:50.143Z,70.00
2023-01-10T22:53:23.669Z,70.10
2023-01-10T22:55:57.436Z,70.10
2023-01-10T22:58:31.548Z,70.00
2023-01-10T23:01:06.620Z,70.10
2023-01-10T23:03:41.943Z,70.00
2023-01-10T23:06:17.262Z,70.10
2023-01-10T23:08:51.785Z,70.20
2023-01-10T23:11:25.446Z,70.20
2023-01-10T23:13:58.979Z,70.20
2023-01-10T23:16:33.115Z,70.30
2023-01-10T23:19:07.999Z,70.40
2023-01-10T23:21:41.320Z,70.40
2023-01-10T23:24:17.071Z,70.40
2023-01-10T23:26:51.567Z,70.40
2023-01-10T23:29:25.607Z,70.40
2023-01-10T23:31:59.276Z,70.60
2023-01-10T23:34:34.234Z,70.70
2023-01-10T23:37:07.859Z,70.70
2023-01-10T23:39:41.509Z,70.60
2023-01-10T23:42:15.806Z,70.70
2023-01-10T23:44:49.393Z,70.70
2023-01-10T23:47:22.974Z,70.70
2023-01-10T23:49:58.195Z,71.20
2023-01-10T23:52:31.971Z,70.60
2023-01-10T23:55:07.851Z,70.50
2023-01-10T23:57:41.247Z,70.50
